Time;durP1;ratioP1;P1;durP2;ratioP2;P2;SDS_P1;SDS_P2;PMS_P1;PMS_P2;Temp;Humidity;BMP_temperature;BMP_pressure;BME280_temperature;BME280_humidity;BME280_pressure;Samples;Min_cycle;Max_cycle;Signal;HPM_P1;HPM_P2
2021/10/07 00:01:24;;;;;;;3.47;1.27;;;11.00;99.90;;;;;;5041156;28;20091;-76
2021/10/07 00:03:51;;;;;;;2.78;0.90;;;11.00;99.90;;;;;;5043706;28;20139;-78
2021/10/07 00:06:18;;;;;;;3.00;1.05;;;11.10;99.90;;;;;;5041736;28;20140;-79
2021/10/07 00:08:45;;;;;;;4.30;1.35;;;11.10;99.90;;;;;;5042292;28;20164;-79
2021/10/07 00:11:14;;;;;;;2.55;0.90;;;11.10;99.90;;;;;;5041755;28;20581;-81
2021/10/07 00:13:43;;;;;;;5.20;1.10;;;11.20;99.90;;;;;;5036704;28;20402;-78
2021/10/07 00:16:11;;;;;;;3.58;1.08;;;11.20;99.90;;;;;;5046095;28;20072;-77
2021/10/07 00:18:40;;;;;;;4.07;1.20;;;11.20;99.90;;;;;;5043951;28;20124;-76
2021/10/07 00:21:07;;;;;;;2.20;0.90;;;11.30;99.90;;;;;;5043995;28;20041;-77
2021/10/07 00:23:38;;;;;;;4.43;1.35;;;11.30;99.90;;;;;;5047524;28;20131;-78
2021/10/07 00:26:05;;;;;;;3.47;1.20;;;11.30;99.90;;;;;;5047264;28;20084;-76
2021/10/07 00:28:33;;;;;;;3.70;1.10;;;11.30;99.90;;;;;;5051261;28;20081;-78
2021/10/07 00:31:03;;;;;;;2.35;0.95;;;11.30;99.90;;;;;;5043552;28;20037;-77
2021/10/07 00:33:37;;;;;;;3.35;1.63;;;11.40;99.90;;;;;;5046848;28;20048;-77
2021/10/07 00:36:12;;;;;;;3.47;1.05;;;11.40;99.90;;;;;;5053525;28;20044;-77
2021/10/07 00:41:24;;;;;;;3.03;0.98;;;11.40;99.90;;;;;;5045104;28;20131;-76
2021/10/07 00:43:51;;;;;;;3.75;1.33;;;11.40;99.90;;;;;;5046647;28;20077;-77
2021/10/07 00:46:19;;;;;;;3.10;1.00;;;11.40;99.90;;;;;;5044950;28;20136;-78
2021/10/07 00:48:46;;;;;;;3.45;1.10;;;11.40;99.90;;;;;;5046494;28;20044;-79
2021/10/07 00:51:13;;;;;;;3.10;1.17;;;11.40;99.90;;;;;;5045310;28;20132;-75
2021/10/07 00:53:41;;;;;;;3.00;1.10;;;11.40;99.90;;;;;;5046879;28;20137;-78
2021/10/07 00:56:08;;;;;;;4.00;1.30;;;11.40;99.90;;;;;;5039751;28;20124;-80
2021/10/07 00:58:35;;;;;;;3.45;1.10;;;11.40;99.90;;;;;;5042881;28;20132;-79
2021/10/07 01:01:02;;;;;;;3.63;1.10;;;11.40;99.90;;;;;;5042875;28;20133;-79
2021/10/07 01:03:33;;;;;;;4.40;1.20;;;11.40;99.90;;;;;;5042540;28;20140;-77
2021/10/07 01:06:00;;;;;;;2.50;1.20;;;11.40;99.90;;;;;;5042972;28;20041;-78
2021/10/07 01:08:28;;;;;;;3.25;1.20;;;11.30;99.90;;;;;;5043297;28;20095;-77
2021/10/07 01:10:55;;;;;;;3.05;1.00;;;11.30;99.90;;;;;;5042818;28;20128;-75
2021/10/07 01:13:22;;;;;;;3.25;1.13;;;11.40;99.90;;;;;;5044150;28;20133;-77
2021/10/07 01:15:49;;;;;;;4.15;1.10;;;11.40;99.90;;;;;;5045902;28;20128;-76
2021/10/07 01:18:16;;;;;;;3.10;1.30;;;11.40;99.90;;;;;;5044535;28;20136;-77
2021/10/07 01:20:44;;;;;;;3.17;0.95;;;11.40;99.90;;;;;;5043660;28;20129;-78
2021/10/07 01:23:12;;;;;;;3.60;1.10;;;11.40;99.90;;;;;;5038693;28;20132;-78
2021/10/07 01:25:39;;;;;;;2.95;1.02;;;11.40;99.90;;;;;;5045835;28;20119;-78
2021/10/07 01:28:06;;;;;;;3.28;1.25;;;11.40;99.90;;;;;;5045469;28;20127;-78
2021/10/07 01:30:33;;;;;;;2.47;1.00;;;11.40;99.90;;;;;;5045230;28;20324;-77
2021/10/07 01:33:00;;;;;;;3.60;1.33;;;11.40;99.90;;;;;;5045815;28;20120;-78
2021/10/07 01:35:27;;;;;;;3.33;1.08;;;11.30;99.90;;;;;;5042982;28;20102;-77
2021/10/07 01:37:56;;;;;;;3.47;1.10;;;11.30;99.90;;;;;;5042128;28;20121;-76
2021/10/07 01:40:23;;;;;;;3.10;1.10;;;11.30;99.90;;;;;;5045085;28;20132;-78
2021/10/07 01:42:50;;;;;;;3.47;1.10;;;11.40;99.90;;;;;;5041986;28;20128;-77
2021/10/07 01:45:18;;;;;;;4.38;1.10;;;11.40;99.90;;;;;;5042707;28;20141;-79
2021/10/07 01:47:45;;;;;;;3.40;1.00;;;11.40;99.90;;;;;;5045398;28;20506;-78
2021/10/07 01:50:14;;;;;;;3.55;1.10;;;11.40;99.90;;;;;;5038108;28;20129;-78
2021/10/07 01:52:42;;;;;;;3.58;1.17;;;11.40;99.90;;;;;;5045092;28;20136;-78
2021/10/07 01:55:12;;;;;;;3.92;0.95;;;11.40;99.90;;;;;;5044864;28;20455;-77
2021/10/07 01:57:41;;;;;;;3.55;0.85;;;11.40;99.90;;;;;;5044527;28;20479;-78
2021/10/07 02:00:12;;;;;;;3.25;0.90;;;11.40;99.90;;;;;;5043896;28;20132;-78
2021/10/07 02:02:40;;;;;;;2.80;1.10;;;11.40;99.90;;;;;;5041632;28;20495;-78
2021/10/07 02:05:08;;;;;;;4.30;1.08;;;11.40;99.90;;;;;;5041531;28;20128;-77
2021/10/07 02:07:36;;;;;;;2.95;1.00;;;11.40;99.90;;;;;;5041451;28;20132;-79
2021/10/07 02:10:05;;;;;;;4.20;1.30;;;11.40;99.90;;;;;;5047445;28;20124;-77
2021/10/07 02:12:34;;;;;;;2.33;1.00;;;11.40;99.90;;;;;;5044189;28;20552;-76
2021/10/07 02:15:01;;;;;;;2.90;1.10;;;11.40;99.90;;;;;;5044878;28;20128;-75
2021/10/07 02:17:28;;;;;;;5.15;1.10;;;11.40;99.90;;;;;;5041931;28;20127;-76
2021/10/07 02:19:55;;;;;;;3.97;1.30;;;11.30;99.90;;;;;;5041233;28;20136;-78
2021/10/07 02:22:22;;;;;;;4.07;1.00;;;11.40;99.90;;;;;;5042682;28;20137;-75
2021/10/07 02:24:49;;;;;;;3.70;1.20;;;11.40;99.90;;;;;;5044492;28;20119;-77
2021/10/07 02:27:16;;;;;;;4.15;1.10;;;11.40;99.90;;;;;;5043435;28;20068;-77
2021/10/07 02:29:45;;;;;;;3.50;1.35;;;11.40;99.90;;;;;;5040976;28;20080;-77
2021/10/07 02:32:13;;;;;;;4.40;1.50;;;11.40;99.90;;;;;;5041496;28;20128;-79
2021/10/07 02:34:40;;;;;;;4.57;1.38;;;11.40;99.90;;;;;;5044585;28;20090;-78
2021/10/07 02:37:07;;;;;;;3.03;1.13;;;11.40;99.90;;;;;;5044156;28;20132;-77
2021/10/07 02:39:34;;;;;;;3.47;1.00;;;11.40;99.90;;;;;;5040972;28;20050;-76
2021/10/07 02:42:01;;;;;;;3.50;1.35;;;11.40;99.90;;;;;;5040876;28;20467;-76
2021/10/07 02:44:28;;;;;;;3.55;1.00;;;11.40;99.90;;;;;;5047681;28;20128;-78
2021/10/07 02:46:57;;;;;;;3.10;0.90;;;11.40;99.90;;;;;;5040851;28;20136;-77
2021/10/07 02:49:24;;;;;;;3.53;1.15;;;11.50;99.90;;;;;;5043327;28;20133;-77
2021/10/07 02:51:51;;;;;;;3.33;1.48;;;11.40;99.90;;;;;;5040818;28;20132;-78
2021/10/07 02:54:18;;;;;;;4.45;1.17;;;11.50;99.90;;;;;;5041534;28;20132;-77
2021/10/07 02:56:45;;;;;;;3.35;1.20;;;11.40;99.90;;;;;;5040376;28;20128;-76
2021/10/07 02:59:12;;;;;;;3.40;1.08;;;11.40;99.90;;;;;;5040988;28;20072;-79
2021/10/07 03:01:40;;;;;;;3.67;1.00;;;11.40;99.90;;;;;;5043885;28;20045;-78
2021/10/07 03:04:08;;;;;;;3.10;1.10;;;11.40;99.90;;;;;;5041718;28;20075;-77
2021/10/07 03:06:35;;;;;;;2.90;1.00;;;11.40;99.90;;;;;;5037764;28;20124;-77
2021/10/07 03:09:02;;;;;;;2.67;0.90;;;11.40;99.90;;;;;;5035649;28;20121;-79
2021/10/07 03:11:29;;;;;;;2.95;1.10;;;11.50;99.90;;;;;;5040557;28;20045;-76
2021/10/07 03:13:57;;;;;;;4.35;1.02;;;11.50;99.90;;;;;;5044982;28;20545;-78
2021/10/07 03:16:24;;;;;;;3.58;1.10;;;11.50;99.90;;;;;;5042284;28;20103;-79
2021/10/07 03:18:51;;;;;;;2.78;1.00;;;11.50;99.90;;;;;;5040989;28;20132;-78
2021/10/07 03:21:19;;;;;;;4.07;1.30;;;11.50;99.90;;;;;;5041322;28;20140;-79
2021/10/07 03:23:46;;;;;;;3.97;1.20;;;11.50;99.90;;;;;;5041241;28;20126;-79
2021/10/07 03:26:13;;;;;;;2.63;0.95;;;11.50;99.90;;;;;;5041504;28;20653;-79
2021/10/07 03:28:40;;;;;;;4.97;1.15;;;11.50;99.90;;;;;;5044728;28;20051;-79
2021/10/07 03:31:08;;;;;;;3.05;1.05;;;11.50;99.90;;;;;;5040836;28;20474;-79
2021/10/07 03:33:35;;;;;;;3.08;1.08;;;11.50;99.90;;;;;;5041040;28;20136;-79
2021/10/07 03:36:02;;;;;;;4.57;1.27;;;11.50;99.90;;;;;;5040955;28;20133;-79
2021/10/07 03:38:30;;;;;;;3.95;1.40;;;11.50;99.90;;;;;;5047369;28;20103;-78
2021/10/07 03:40:57;;;;;;;3.50;1.25;;;11.50;99.90;;;;;;5040621;28;20577;-78
2021/10/07 03:43:25;;;;;;;3.13;1.08;;;11.50;99.90;;;;;;5041903;28;20442;-79
2021/10/07 03:45:52;;;;;;;4.07;1.00;;;11.50;99.90;;;;;;5040691;28;20045;-80
2021/10/07 03:48:19;;;;;;;3.30;1.10;;;11.50;99.90;;;;;;5041836;28;20575;-78
2021/10/07 03:50:46;;;;;;;3.38;1.10;;;11.60;99.90;;;;;;5043942;28;20443;-77
2021/10/07 03:53:13;;;;;;;3.50;0.95;;;11.50;99.90;;;;;;5042849;28;20136;-77
2021/10/07 03:55:42;;;;;;;4.28;1.02;;;11.50;99.90;;;;;;5040398;28;20156;-77
2021/10/07 03:58:09;;;;;;;3.85;1.10;;;11.50;99.90;;;;;;5040265;28;20494;-79
2021/10/07 04:00:36;;;;;;;2.58;1.10;;;11.50;99.90;;;;;;5043735;28;20585;-76
2021/10/07 04:03:03;;;;;;;3.03;1.10;;;11.50;99.90;;;;;;5046999;28;20570;-80
2021/10/07 04:05:31;;;;;;;2.88;0.90;;;11.50;99.90;;;;;;5043983;28;20129;-78
2021/10/07 04:07:58;;;;;;;4.90;1.00;;;11.50;99.90;;;;;;5042516;28;20073;-79
2021/10/07 04:10:25;;;;;;;2.88;1.00;;;11.50;99.90;;;;;;5045785;28;20092;-79
2021/10/07 04:12:53;;;;;;;3.25;1.00;;;11.50;99.90;;;;;;5046866;28;20131;-79
2021/10/07 04:15:20;;;;;;;2.55;0.80;;;11.50;99.90;;;;;;5045192;28;20127;-79
2021/10/07 04:17:47;;;;;;;2.53;1.13;;;11.60;99.90;;;;;;5043467;28;20128;-78
2021/10/07 04:20:14;;;;;;;3.20;1.10;;;11.60;99.90;;;;;;5040838;28;20045;-80
2021/10/07 04:22:42;;;;;;;3.03;1.00;;;11.50;99.90;;;;;;5045343;28;20164;-81
2021/10/07 04:25:10;;;;;;;2.38;0.90;;;11.60;99.90;;;;;;5042871;28;20562;-79
2021/10/07 04:27:37;;;;;;;3.33;1.10;;;11.60;99.90;;;;;;5044282;28;20128;-80
2021/10/07 04:30:08;;;;;;;2.83;1.20;;;11.60;99.90;;;;;;5038511;28;20120;-80
2021/10/07 04:32:36;;;;;;;2.50;0.90;;;11.60;99.90;;;;;;5054531;28;20128;-79
2021/10/07 04:35:04;;;;;;;3.30;1.00;;;11.60;99.90;;;;;;5055440;28;20128;-78
2021/10/07 04:37:31;;;;;;;4.00;1.40;;;11.60;99.90;;;;;;5055403;28;20132;-80
2021/10/07 04:39:58;;;;;;;3.60;1.17;;;11.60;99.90;;;;;;5055185;28;20051;-80
2021/10/07 04:42:26;;;;;;;3.53;1.42;;;11.60;99.90;;;;;;5055142;28;20137;-80
2021/10/07 04:44:53;;;;;;;2.42;1.20;;;11.60;99.90;;;;;;5055341;28;20141;-79
2021/10/07 04:47:21;;;;;;;3.53;1.20;;;11.60;99.90;;;;;;5055187;28;20136;-80
2021/10/07 04:49:48;;;;;;;4.68;1.30;;;11.60;99.90;;;;;;5054711;28;20136;-79
2021/10/07 04:52:15;;;;;;;3.85;1.30;;;11.60;99.90;;;;;;5054722;28;20143;-79
2021/10/07 04:54:42;;;;;;;5.13;1.30;;;11.60;99.90;;;;;;5055052;28;20123;-80
2021/10/07 04:57:09;;;;;;;2.88;1.20;;;11.60;99.90;;;;;;5057419;28;20139;-79
2021/10/07 04:59:36;;;;;;;3.67;1.30;;;11.60;99.90;;;;;;5054995;28;20076;-80
2021/10/07 05:02:04;;;;;;;3.40;1.10;;;11.60;99.90;;;;;;5055038;28;20124;-80
2021/10/07 05:04:32;;;;;;;5.63;1.20;;;11.60;99.90;;;;;;5054858;28;20131;-79
2021/10/07 05:06:59;;;;;;;3.25;1.20;;;11.60;99.90;;;;;;5054834;28;20136;-79
2021/10/07 05:09:26;;;;;;;3.20;1.40;;;11.60;99.90;;;;;;5054601;28;20131;-80
2021/10/07 05:11:53;;;;;;;3.83;1.25;;;11.60;99.90;;;;;;5054825;28;20127;-80
2021/10/07 05:14:20;;;;;;;4.03;1.40;;;11.60;99.90;;;;;;5054785;28;20139;-79
2021/10/07 05:16:47;;;;;;;5.07;1.38;;;11.60;99.90;;;;;;5054512;28;20550;-80
2021/10/07 05:19:14;;;;;;;5.00;1.30;;;11.60;99.90;;;;;;5054540;28;20168;-80
2021/10/07 05:21:43;;;;;;;3.67;1.20;;;11.60;99.90;;;;;;5054176;28;20136;-79
2021/10/07 05:24:10;;;;;;;3.25;1.20;;;11.60;99.90;;;;;;5054627;28;20144;-79
2021/10/07 05:26:37;;;;;;;3.33;1.30;;;11.60;99.90;;;;;;5054279;28;20466;-79
2021/10/07 05:29:04;;;;;;;2.58;1.15;;;11.60;99.90;;;;;;5054528;28;20136;-79
2021/10/07 05:31:31;;;;;;;4.00;1.27;;;11.60;99.90;;;;;;5054422;28;20133;-80
2021/10/07 05:33:58;;;;;;;2.50;1.02;;;11.60;99.90;;;;;;5054149;28;20124;-81
2021/10/07 05:36:25;;;;;;;2.72;1.20;;;11.60;99.90;;;;;;5054325;28;20080;-78
2021/10/07 05:38:53;;;;;;;2.78;1.33;;;11.60;99.90;;;;;;5054085;28;20570;-79
2021/10/07 05:41:20;;;;;;;2.97;1.38;;;11.70;99.90;;;;;;5053454;28;20239;-79
2021/10/07 05:43:47;;;;;;;4.07;1.30;;;11.70;99.90;;;;;;5054116;28;20143;-80
2021/10/07 05:46:15;;;;;;;3.33;1.40;;;11.60;99.90;;;;;;5053947;28;20144;-80
2021/10/07 05:48:42;;;;;;;4.00;1.23;;;11.70;99.90;;;;;;5053952;28;20119;-78
2021/10/07 05:51:09;;;;;;;4.03;1.40;;;11.70;99.90;;;;;;5053877;28;20561;-81
2021/10/07 05:53:36;;;;;;;4.47;1.60;;;11.60;99.90;;;;;;5053799;28;20128;-79
2021/10/07 05:56:06;;;;;;;5.57;1.40;;;11.70;99.90;;;;;;5053748;28;20554;-79
2021/10/07 05:58:33;;;;;;;6.65;1.58;;;11.70;99.90;;;;;;5054050;28;20091;-80
2021/10/07 06:01:00;;;;;;;3.40;1.40;;;11.60;99.90;;;;;;5053540;28;20568;-80
2021/10/07 06:03:27;;;;;;;4.18;1.45;;;11.60;99.90;;;;;;5053852;28;20350;-80
2021/10/07 06:05:54;;;;;;;2.45;1.30;;;11.70;99.90;;;;;;5053560;28;20212;-79
2021/10/07 06:08:21;;;;;;;5.13;1.42;;;11.70;99.90;;;;;;5053556;28;20406;-80
2021/10/07 06:10:48;;;;;;;6.05;1.65;;;11.60;99.90;;;;;;5053791;28;20135;-78
2021/10/07 06:13:17;;;;;;;3.70;1.52;;;11.60;99.90;;;;;;5053559;28;20135;-78
2021/10/07 06:15:44;;;;;;;2.78;1.33;;;11.60;99.90;;;;;;5053513;28;20579;-80
2021/10/07 06:18:11;;;;;;;3.47;1.33;;;11.60;99.90;;;;;;5053469;28;20073;-78
2021/10/07 06:20:38;;;;;;;2.85;1.17;;;11.60;99.90;;;;;;5053160;28;20084;-78
2021/10/07 06:23:06;;;;;;;3.22;1.40;;;11.60;99.90;;;;;;5053451;28;20434;-78
2021/10/07 06:25:35;;;;;;;3.53;1.30;;;11.60;99.90;;;;;;5053374;28;20041;-78
2021/10/07 06:28:02;;;;;;;3.47;1.35;;;11.60;99.90;;;;;;5053149;28;20143;-79
2021/10/07 06:30:31;;;;;;;4.22;1.60;;;11.60;99.90;;;;;;5053974;28;20112;-77
2021/10/07 06:32:59;;;;;;;3.72;1.55;;;11.60;99.90;;;;;;5062678;28;20078;-78
2021/10/07 06:35:26;;;;;;;3.97;1.60;;;11.60;99.90;;;;;;5062869;28;20474;-78
2021/10/07 06:37:54;;;;;;;2.85;1.48;;;11.70;99.90;;;;;;5061786;28;20077;-77
2021/10/07 06:40:21;;;;;;;3.22;1.55;;;11.70;99.90;;;;;;5061946;28;20069;-77
2021/10/07 06:42:48;;;;;;;3.20;1.50;;;11.60;99.90;;;;;;5056692;28;20077;-79
2021/10/07 06:45:15;;;;;;;4.70;1.85;;;11.70;99.90;;;;;;5057338;28;20135;-80
2021/10/07 06:47:44;;;;;;;5.68;1.80;;;11.70;99.90;;;;;;5053101;28;20124;-80
2021/10/07 06:50:12;;;;;;;4.35;1.70;;;11.70;99.90;;;;;;5052263;28;20132;-80
2021/10/07 06:52:41;;;;;;;3.25;1.73;;;11.70;99.90;;;;;;5052627;28;20453;-80
2021/10/07 06:55:11;;;;;;;4.55;1.63;;;11.70;99.90;;;;;;5052923;28;20049;-78
2021/10/07 06:57:39;;;;;;;5.13;1.55;;;11.70;99.90;;;;;;5052798;28;20131;-78
2021/10/07 07:00:09;;;;;;;3.53;1.40;;;11.70;99.90;;;;;;5052867;28;20128;-77
2021/10/07 07:02:37;;;;;;;4.18;1.65;;;11.70;99.90;;;;;;5052995;28;20067;-80
2021/10/07 07:05:07;;;;;;;2.90;1.63;;;11.80;99.90;;;;;;5052848;28;20133;-79
2021/10/07 07:07:34;;;;;;;3.60;1.58;;;11.80;99.90;;;;;;5053036;28;20073;-81
2021/10/07 07:10:02;;;;;;;4.20;1.65;;;11.80;99.90;;;;;;5052769;28;20136;-80
2021/10/07 07:12:29;;;;;;;4.50;1.88;;;11.80;99.90;;;;;;5052868;28;20140;-80
2021/10/07 07:14:56;;;;;;;3.85;1.90;;;11.80;99.90;;;;;;5052641;28;20574;-79
2021/10/07 07:17:23;;;;;;;3.67;1.67;;;11.90;99.90;;;;;;5052627;28;20143;-79
2021/10/07 07:19:50;;;;;;;4.75;2.33;;;11.90;99.90;;;;;;5052590;28;20136;-79
2021/10/07 07:22:18;;;;;;;4.70;1.83;;;11.90;99.90;;;;;;5052686;28;20147;-80
2021/10/07 07:24:45;;;;;;;4.28;1.85;;;11.90;99.90;;;;;;5052576;28;20136;-79
2021/10/07 07:27:14;;;;;;;4.40;1.70;;;12.00;99.90;;;;;;5052549;28;20404;-79
2021/10/07 07:29:42;;;;;;;3.25;1.48;;;12.00;99.90;;;;;;5052721;28;20053;-80
2021/10/07 07:32:09;;;;;;;4.22;2.00;;;12.00;99.90;;;;;;5052636;28;20044;-80
2021/10/07 07:34:36;;;;;;;6.70;2.10;;;12.00;99.90;;;;;;5052555;28;20123;-79
2021/10/07 07:37:03;;;;;;;4.55;2.00;;;11.90;99.90;;;;;;5052414;28;20099;-80
2021/10/07 07:39:32;;;;;;;3.80;1.98;;;11.90;99.90;;;;;;5052437;28;20132;-79
2021/10/07 07:41:59;;;;;;;4.97;2.15;;;11.90;99.90;;;;;;5052436;28;20175;-79
2021/10/07 07:44:26;;;;;;;4.65;1.98;;;11.90;99.90;;;;;;5052606;28;20127;-79
2021/10/07 07:46:54;;;;;;;5.22;1.90;;;11.90;99.90;;;;;;5052412;28;20128;-80
2021/10/07 07:49:22;;;;;;;4.25;2.00;;;11.90;99.90;;;;;;5051586;28;20132;-80
2021/10/07 07:51:49;;;;;;;5.50;2.70;;;12.00;99.90;;;;;;5052371;28;20083;-80
2021/10/07 07:54:16;;;;;;;4.70;1.92;;;12.00;99.90;;;;;;5052168;28;20522;-78
2021/10/07 07:56:44;;;;;;;4.53;1.98;;;12.00;99.90;;;;;;5052473;28;20075;-78
2021/10/07 07:59:11;;;;;;;4.60;2.05;;;12.10;99.90;;;;;;5054252;28;20135;-77
2021/10/07 08:01:38;;;;;;;4.53;2.03;;;12.20;99.90;;;;;;5056025;28;20053;-78
2021/10/07 08:04:07;;;;;;;5.65;2.00;;;12.20;99.90;;;;;;5055884;28;20128;-76
2021/10/07 08:06:34;;;;;;;4.70;2.30;;;12.30;99.90;;;;;;5055815;28;20045;-79
2021/10/07 08:09:02;;;;;;;4.68;1.83;;;12.40;99.90;;;;;;5055872;28;20106;-78
2021/10/07 08:11:29;;;;;;;10.02;4.60;;;12.40;99.90;;;;;;5055851;28;20053;-78
2021/10/07 08:13:58;;;;;;;9.63;4.90;;;12.50;99.90;;;;;;5055885;28;20052;-78
2021/10/07 08:16:26;;;;;;;7.43;3.80;;;12.50;99.90;;;;;;5055826;28;20062;-78
2021/10/07 08:18:54;;;;;;;6.05;2.78;;;12.50;99.90;;;;;;5055788;28;20044;-79
2021/10/07 08:21:21;;;;;;;4.13;2.20;;;12.60;99.90;;;;;;5055799;28;20140;-80
2021/10/07 08:23:49;;;;;;;4.72;2.10;;;12.60;99.90;;;;;;5056332;28;20087;-78
2021/10/07 08:26:16;;;;;;;4.50;2.03;;;12.70;99.90;;;;;;5059049;28;20060;-78
2021/10/07 08:28:44;;;;;;;4.00;1.90;;;12.80;99.90;;;;;;5058130;28;20513;-79
2021/10/07 08:31:13;;;;;;;6.15;2.22;;;12.80;99.90;;;;;;5056267;28;20131;-79
2021/10/07 08:33:40;;;;;;;4.30;2.10;;;12.80;99.90;;;;;;5057012;28;20048;-79
2021/10/07 08:36:08;;;;;;;4.80;2.45;;;12.90;99.90;;;;;;5056370;28;20056;-78
2021/10/07 08:38:35;;;;;;;5.63;2.10;;;12.90;99.90;;;;;;5055985;28;20358;-80
2021/10/07 08:41:02;;;;;;;4.53;2.30;;;12.90;99.90;;;;;;5057579;28;20053;-75
2021/10/07 08:43:29;;;;;;;5.25;2.20;;;13.00;99.90;;;;;;5056485;28;20139;-79
2021/10/07 08:45:57;;;;;;;4.60;2.13;;;13.00;99.90;;;;;;5055019;28;20083;-80
2021/10/07 08:48:25;;;;;;;4.28;2.30;;;13.10;99.90;;;;;;5055445;28;20072;-80
2021/10/07 08:50:52;;;;;;;5.40;2.42;;;13.10;99.90;;;;;;5055183;28;20132;-79
2021/10/07 08:53:19;;;;;;;5.05;2.80;;;13.20;99.90;;;;;;5054931;28;20147;-78
2021/10/07 08:55:46;;;;;;;5.47;2.33;;;13.20;99.90;;;;;;5055098;28;20128;-77
2021/10/07 08:58:13;;;;;;;4.13;2.28;;;13.20;99.90;;;;;;5055073;28;20578;-80
2021/10/07 09:00:41;;;;;;;5.22;2.50;;;13.20;99.90;;;;;;5054662;28;20136;-80
2021/10/07 09:03:20;;;;;;;5.35;2.75;;;13.20;99.90;;;;;;5054802;28;20136;-79
2021/10/07 09:05:49;;;;;;;5.00;2.63;;;13.30;99.90;;;;;;5054854;28;20056;-79
2021/10/07 09:08:17;;;;;;;4.35;2.45;;;13.30;99.90;;;;;;5054845;28;20131;-80
2021/10/07 09:10:49;;;;;;;4.63;2.38;;;13.40;99.90;;;;;;5054446;28;20129;-80
2021/10/07 09:13:21;;;;;;;9.88;2.67;;;13.40;99.90;;;;;;5054879;28;20122;-80
2021/10/07 09:15:51;;;;;;;5.40;2.47;;;13.40;99.90;;;;;;5054892;28;20071;-79
2021/10/07 09:18:19;;;;;;;4.70;2.40;;;13.40;99.90;;;;;;5054669;28;20052;-79
2021/10/07 09:20:50;;;;;;;7.40;2.80;;;13.50;99.90;;;;;;5054460;28;20542;-80
2021/10/07 09:23:20;;;;;;;5.03;2.80;;;13.50;99.90;;;;;;5054286;28;20135;-79
2021/10/07 09:25:56;;;;;;;5.72;3.17;;;13.50;99.90;;;;;;5054412;28;20140;-80
2021/10/07 09:28:24;;;;;;;6.07;2.80;;;13.60;99.90;;;;;;5054637;28;20132;-78
2021/10/07 09:30:56;;;;;;;5.65;3.10;;;13.60;99.90;;;;;;5054475;28;20083;-80
2021/10/07 09:33:29;;;;;;;6.90;2.80;;;13.60;99.90;;;;;;5054508;28;20404;-78
2021/10/07 09:36:18;;;;;;;6.40;2.70;;;13.60;99.90;;;;;;5054213;28;20053;-77
2021/10/07 09:38:48;;;;;;;4.75;3.00;;;13.60;99.90;;;;;;5054252;28;20137;-78
2021/10/07 09:41:18;;;;;;;5.07;3.05;;;13.60;99.90;;;;;;5054195;28;20044;-78
2021/10/07 09:43:49;;;;;;;5.78;3.15;;;13.60;99.90;;;;;;5056201;28;20071;-80
2021/10/07 09:46:40;;;;;;;6.20;3.13;;;13.60;99.90;;;;;;5054752;28;20085;-78
2021/10/07 09:49:08;;;;;;;5.88;3.17;;;13.70;99.90;;;;;;5054264;28;20049;-77
2021/10/07 09:51:42;;;;;;;8.02;3.60;;;13.70;99.90;;;;;;5054613;28;20478;-79
2021/10/07 09:54:10;;;;;;;4.60;3.20;;;13.80;99.90;;;;;;5053743;28;20136;-76
2021/10/07 09:56:37;;;;;;;6.47;3.05;;;13.80;99.90;;;;;;5053682;28;20088;-76
2021/10/07 09:59:10;;;;;;;8.07;3.10;;;13.90;99.90;;;;;;5053811;28;20128;-77
2021/10/07 10:01:39;;;;;;;5.78;2.70;;;14.00;99.90;;;;;;5051195;28;20467;-74
2021/10/07 10:04:06;;;;;;;8.18;3.47;;;14.00;99.90;;;;;;5030684;28;20481;-76
2021/10/07 10:06:33;;;;;;;7.30;4.05;;;14.10;99.90;;;;;;5030821;28;20132;-78
2021/10/07 10:09:02;;;;;;;8.43;4.43;;;14.10;99.90;;;;;;5030903;28;20045;-78
2021/10/07 10:11:29;;;;;;;7.75;3.67;;;14.20;99.90;;;;;;5031003;28;20219;-76
2021/10/07 10:13:56;;;;;;;5.50;2.72;;;14.20;99.90;;;;;;5033622;28;20128;-77
2021/10/07 10:16:23;;;;;;;6.28;2.60;;;14.30;99.90;;;;;;5030782;28;20554;-76
2021/10/07 10:19:00;;;;;;;4.72;2.20;;;14.30;99.90;;;;;;5030768;28;20140;-78
2021/10/07 10:21:34;;;;;;;3.58;2.30;;;14.40;99.70;;;;;;5030435;28;20052;-78
2021/10/07 10:24:04;;;;;;;6.07;2.67;;;14.40;99.50;;;;;;5030873;28;20049;-76
2021/10/07 10:26:31;;;;;;;4.20;2.50;;;14.40;99.30;;;;;;5030481;28;20056;-76
2021/10/07 10:28:58;;;;;;;4.72;2.45;;;14.50;99.40;;;;;;5030400;28;20430;-74
2021/10/07 10:31:33;;;;;;;4.85;2.63;;;14.50;99.40;;;;;;5030716;28;20049;-76
2021/10/07 10:34:10;;;;;;;4.47;2.70;;;14.60;99.40;;;;;;5030386;28;20161;-75
2021/10/07 10:36:42;;;;;;;5.78;2.58;;;14.70;99.10;;;;;;5030478;28;20045;-78
2021/10/07 10:39:25;;;;;;;5.72;2.60;;;14.70;98.70;;;;;;5030708;28;20128;-75
2021/10/07 10:41:55;;;;;;;5.03;2.92;;;14.70;98.90;;;;;;5030150;28;20136;-77
2021/10/07 10:44:41;;;;;;;4.93;2.78;;;14.80;99.00;;;;;;5030499;28;20049;-76
2021/10/07 10:47:27;;;;;;;4.95;2.72;;;14.80;98.80;;;;;;5030695;28;20160;-77
2021/10/07 10:50:10;;;;;;;5.63;2.35;;;14.90;98.80;;;;;;5030716;28;20144;-76
2021/10/07 10:52:43;;;;;;;4.07;2.45;;;15.00;98.60;;;;;;5030196;28;20149;-77
2021/10/07 10:55:14;;;;;;;4.22;2.80;;;15.10;98.10;;;;;;5030416;28;20485;-76
2021/10/07 10:57:45;;;;;;;4.72;2.47;;;15.10;97.50;;;;;;5030919;28;20132;-76
2021/10/07 11:00:17;;;;;;;5.45;2.20;;;15.20;97.60;;;;;;5030286;28;20388;-78
2021/10/07 11:02:46;;;;;;;4.00;2.30;;;15.20;97.80;;;;;;5030156;28;20060;-77
2021/10/07 11:05:25;;;;;;;4.18;2.10;;;15.30;97.90;;;;;;5030130;28;20683;-75
2021/10/07 11:08:24;;;;;;;4.78;2.20;;;15.30;97.90;;;;;;5028108;28;20052;-77
2021/10/07 11:10:54;;;;;;;4.20;2.47;;;15.30;97.50;;;;;;4969209;28;20051;-77
2021/10/07 11:13:24;;;;;;;4.03;2.38;;;15.30;96.90;;;;;;5017596;28;20505;-78
2021/10/07 11:15:57;;;;;;;4.13;2.40;;;15.30;96.80;;;;;;5030105;28;20140;-77
2021/10/07 11:18:26;;;;;;;5.57;2.75;;;15.40;97.20;;;;;;5030458;28;20053;-79
2021/10/07 11:20:57;;;;;;;4.18;2.58;;;15.40;97.10;;;;;;5028565;28;20053;-78
2021/10/07 11:23:25;;;;;;;3.83;2.50;;;15.40;97.00;;;;;;5030259;28;20136;-78
2021/10/07 11:25:56;;;;;;;4.60;2.55;;;15.40;97.30;;;;;;5029839;28;20554;-80
2021/10/07 11:28:28;;;;;;;4.32;2.30;;;15.30;97.00;;;;;;5029863;28;20149;-79
2021/10/07 11:30:59;;;;;;;4.32;2.20;;;15.30;97.20;;;;;;5030079;28;20136;-79
2021/10/07 11:33:27;;;;;;;4.63;2.10;;;15.30;97.20;;;;;;5031999;28;20050;-78
2021/10/07 11:35:59;;;;;;;5.53;2.50;;;15.20;97.40;;;;;;5033700;28;20115;-79
2021/10/07 11:38:26;;;;;;;3.75;2.10;;;15.30;97.60;;;;;;5033692;28;20566;-78
2021/10/07 11:40:55;;;;;;;4.25;2.25;;;15.40;97.30;;;;;;5033703;28;20132;-79
2021/10/07 11:43:26;;;;;;;4.32;2.17;;;15.50;97.10;;;;;;5033849;28;20085;-79
2021/10/07 11:45:56;;;;;;;4.85;2.28;;;15.60;96.70;;;;;;5033460;28;20049;-78
2021/10/07 11:48:24;;;;;;;4.45;2.10;;;15.60;96.60;;;;;;5033635;28;20136;-76
2021/10/07 11:50:54;;;;;;;5.75;2.40;;;15.60;96.90;;;;;;5033954;28;20136;-78
2021/10/07 11:53:31;;;;;;;4.60;2.15;;;15.60;96.00;;;;;;5036194;28;20427;-79
2021/10/07 11:56:02;;;;;;;4.28;2.20;;;15.70;95.70;;;;;;5042850;28;20131;-79
2021/10/07 11:58:31;;;;;;;4.75;2.00;;;15.80;94.90;;;;;;5046548;28;20128;-79
2021/10/07 12:01:00;;;;;;;4.13;2.08;;;15.80;94.90;;;;;;5040019;28;20140;-79
2021/10/07 12:03:29;;;;;;;4.95;2.10;;;15.90;95.10;;;;;;5032663;28;20422;-80
2021/10/07 12:06:00;;;;;;;3.95;1.90;;;16.00;95.20;;;;;;5034745;28;20144;-79
2021/10/07 12:08:30;;;;;;;3.60;2.05;;;16.00;95.10;;;;;;5033878;28;20582;-78
2021/10/07 12:11:02;;;;;;;2.97;1.60;;;16.00;95.00;;;;;;5034736;28;20152;-78
2021/10/07 12:13:32;;;;;;;4.60;2.10;;;16.00;95.30;;;;;;5035874;28;20061;-77
2021/10/07 12:16:02;;;;;;;4.85;2.30;;;16.00;95.20;;;;;;5033771;28;20049;-77
2021/10/07 12:18:30;;;;;;;3.63;1.88;;;15.90;95.10;;;;;;5034713;28;20141;-78
2021/10/07 12:21:10;;;;;;;5.00;1.98;;;15.90;94.80;;;;;;5033071;28;20566;-79
2021/10/07 12:23:54;;;;;;;4.05;1.83;;;15.80;94.80;;;;;;5049978;28;20053;-78
2021/10/07 12:26:34;;;;;;;5.18;2.08;;;15.70;95.20;;;;;;5048530;28;20136;-78
2021/10/07 12:29:08;;;;;;;3.78;1.98;;;15.60;95.10;;;;;;5033192;28;20052;-79
2021/10/07 12:31:35;;;;;;;6.25;2.45;;;15.60;95.20;;;;;;5033484;28;20045;-79
2021/10/07 12:34:06;;;;;;;5.82;2.50;;;15.50;95.00;;;;;;5034561;28;20132;-79
2021/10/07 12:36:39;;;;;;;4.47;2.58;;;15.40;95.30;;;;;;5051667;28;20128;-78
2021/10/07 12:39:20;;;;;;;4.35;2.25;;;15.40;95.30;;;;;;5038302;28;20582;-78
2021/10/07 12:41:52;;;;;;;3.80;1.88;;;15.40;95.40;;;;;;5038138;28;20087;-80
2021/10/07 12:44:22;;;;;;;5.85;2.13;;;15.40;95.30;;;;;;5036772;28;20103;-80
2021/10/07 12:46:52;;;;;;;4.20;1.83;;;15.40;95.40;;;;;;5043465;28;20128;-79
2021/10/07 12:49:37;;;;;;;4.40;2.17;;;15.30;95.50;;;;;;5032525;28;20451;-79
2021/10/07 12:52:14;;;;;;;3.85;2.10;;;15.30;95.60;;;;;;5032108;28;20052;-80
2021/10/07 12:54:41;;;;;;;3.92;2.20;;;15.40;95.70;;;;;;5031315;28;20057;-80
2021/10/07 12:57:10;;;;;;;4.95;2.05;;;15.40;95.50;;;;;;5031183;28;20094;-80
2021/10/07 12:59:55;;;;;;;2.92;1.70;;;15.40;95.40;;;;;;5032496;28;20064;-80